Main page
METAR-TAF:

METAR-TAF

Airports :

Norwich Airport

Norwich, England

latitude: 52-38N, longitude: 001-18E, elevation: 14 m

Current weather observation

The report was made 10 minutes ago, at 05:50 UTC
Wind 11 kt from the West
Temperature 5°C
Humidity 87%
Pressure 1017 hPa
Visibility 10 km or more

METAR: EGSH 170550Z AUTO 27011KT 9999 FEW045/// 05/03 Q1017

Time: 06:00 (06:00 UTC)

Forecast

The report was made 1 hour and 6 minutes ago, at 04:54 UTC
Forecast valid from 17 at 06 UTC to 17 at 15 UTC
Wind 10 kt from the West
Visibility 10 km or more
Few clouds at a height of 3000 ft
Probability 40% :
Temporary
from 17 at 06 UTC to 17 at 08 UTC
Visibility: 8000 m
Broken clouds at a height of 1400 ft
light rain showers

TAF: EGSH 170454Z 1706/1715 26010KT 9999 FEW030 PROB40 TEMPO 1706/1708 8000 -SHRA BKN014

Weather observations and forecasts of more than 4000 airports (METAR and TAF reports).

The available stations are represented by yellow and red dots on the map.

Hover mouse over dot to see the name of the station.

Then click to see weather observations and forecasts.

To change the map : click on the green buttons with a black cross to zoom in, on the green button with a dash to zoom out, or on the green arrows for adjacent maps.


METAR-TAF: